N9670H -KBHM
Flight info
| Callsign | N9670H |
|---|---|
| Flight time | N/A |
| Altitude | |
| Route | |
| Aircraft | C210/L-DOV/C |
Departure
| Time | N/A |
|---|---|
| Airport | - |
Arrival
| Time | 2026-05-05 22:32 |
|---|---|
| Airport | Birmingham-Shuttlesworth International Airport (KBHM) |
| Time | Latitude | Longitude | Altitude | Speed | Heading |
|---|---|---|---|---|---|
| 2026-05-05 22:12 | 33.77932 | -85.95522 | 13984 ft | 141 kts | 258° |
| 2026-05-05 22:12 | 33.77632 | -85.96647 | 13984 ft | 142 kts | 258° |
| 2026-05-05 22:12 | 33.77332 | -85.97774 | 13983 ft | 141 kts | 258° |
| 2026-05-05 22:13 | 33.77031 | -85.98900 | 13981 ft | 141 kts | 258° |
| 2026-05-05 22:13 | 33.76731 | -86.00025 | 13981 ft | 141 kts | 258° |
| 2026-05-05 22:13 | 33.76432 | -86.01147 | 13981 ft | 141 kts | 258° |
| 2026-05-05 22:13 | 33.76128 | -86.02294 | 13807 ft | 151 kts | 258° |
| 2026-05-05 22:14 | 33.75801 | -86.03523 | 13590 ft | 157 kts | 258° |
| 2026-05-05 22:14 | 33.75461 | -86.04792 | 13371 ft | 161 kts | 257° |
| 2026-05-05 22:14 | 33.75116 | -86.06079 | 13151 ft | 162 kts | 257° |
| 2026-05-05 22:14 | 33.74768 | -86.07377 | 12930 ft | 163 kts | 257° |
| 2026-05-05 22:15 | 33.74416 | -86.08676 | 12708 ft | 164 kts | 256° |
| 2026-05-05 22:15 | 33.74054 | -86.09949 | 12480 ft | 159 kts | 255° |
| 2026-05-05 22:15 | 33.73703 | -86.11196 | 12253 ft | 156 kts | 255° |
| 2026-05-05 22:15 | 33.73364 | -86.12421 | 12023 ft | 152 kts | 255° |
| 2026-05-05 22:16 | 33.73037 | -86.13622 | 11799 ft | 150 kts | 255° |
| 2026-05-05 22:16 | 33.72720 | -86.14812 | 11575 ft | 149 kts | 255° |
| 2026-05-05 22:16 | 33.72414 | -86.15992 | 11352 ft | 148 kts | 255° |
| 2026-05-05 22:16 | 33.72115 | -86.17172 | 11147 ft | 147 kts | 255° |
| 2026-05-05 22:17 | 33.71826 | -86.18348 | 10913 ft | 145 kts | 255° |
| 2026-05-05 22:17 | 33.71553 | -86.19500 | 10668 ft | 141 kts | 255° |
| 2026-05-05 22:17 | 33.71295 | -86.20614 | 10431 ft | 139 kts | 255° |
| 2026-05-05 22:17 | 33.71043 | -86.21727 | 10188 ft | 137 kts | 255° |
| 2026-05-05 22:18 | 33.70797 | -86.22828 | 9957 ft | 136 kts | 255° |
| 2026-05-05 22:18 | 33.70559 | -86.23929 | 9710 ft | 136 kts | 255° |
| 2026-05-05 22:18 | 33.70327 | -86.25027 | 9448 ft | 135 kts | 255° |
| 2026-05-05 22:18 | 33.70103 | -86.26121 | 9175 ft | 134 kts | 255° |
| 2026-05-05 22:19 | 33.69919 | -86.27217 | 8916 ft | 135 kts | 264° |
| 2026-05-05 22:19 | 33.70046 | -86.28345 | 8663 ft | 137 kts | 275° |
| 2026-05-05 22:19 | 33.70228 | -86.29477 | 8416 ft | 138 kts | 274° |
| 2026-05-05 22:19 | 33.70415 | -86.30617 | 8175 ft | 140 kts | 274° |
| 2026-05-05 22:20 | 33.70608 | -86.31756 | 7931 ft | 139 kts | 274° |
| 2026-05-05 22:20 | 33.70772 | -86.32893 | 7679 ft | 135 kts | 264° |
| 2026-05-05 22:20 | 33.70585 | -86.33973 | 7428 ft | 132 kts | 250° |
| 2026-05-05 22:20 | 33.70329 | -86.35034 | 7202 ft | 133 kts | 250° |
| 2026-05-05 22:21 | 33.70079 | -86.36100 | 6965 ft | 133 kts | 250° |
| 2026-05-05 22:21 | 33.69836 | -86.37165 | 6729 ft | 132 kts | 250° |
| 2026-05-05 22:21 | 33.69600 | -86.38240 | 6504 ft | 134 kts | 250° |
| 2026-05-05 22:21 | 33.69445 | -86.38967 | 6349 ft | 137 kts | 250° |
| 2026-05-05 22:22 | 33.69266 | -86.40485 | 6009 ft | 144 kts | 266° |
| 2026-05-05 22:22 | 33.69347 | -86.41681 | 5757 ft | 142 kts | 264° |
| 2026-05-05 22:22 | 33.69397 | -86.42876 | 5508 ft | 144 kts | 264° |
| 2026-05-05 22:22 | 33.69440 | -86.44082 | 5265 ft | 145 kts | 265° |
| 2026-05-05 22:23 | 33.69464 | -86.45308 | 5020 ft | 148 kts | 264° |
| 2026-05-05 22:23 | 33.69455 | -86.46535 | 4776 ft | 145 kts | 259° |
| 2026-05-05 22:23 | 33.69360 | -86.47743 | 4524 ft | 146 kts | 257° |
| 2026-05-05 22:23 | 33.69253 | -86.48964 | 4269 ft | 148 kts | 258° |
| 2026-05-05 22:24 | 33.69138 | -86.50206 | 4035 ft | 151 kts | 257° |
| 2026-05-05 22:24 | 33.69060 | -86.51043 | 3879 ft | 153 kts | 258° |
| 2026-05-05 22:24 | 33.68866 | -86.52719 | 3558 ft | 150 kts | 252° |
| 2026-05-05 22:24 | 33.68696 | -86.53509 | 3387 ft | 145 kts | 249° |
| 2026-05-05 22:25 | 33.68178 | -86.54839 | 3274 ft | 117 kts | 234° |
| 2026-05-05 22:25 | 33.67770 | -86.55627 | 3276 ft | 106 kts | 231° |
| 2026-05-05 22:25 | 33.67381 | -86.56352 | 3278 ft | 101 kts | 230° |
| 2026-05-05 22:25 | 33.67004 | -86.57061 | 3172 ft | 103 kts | 231° |
| 2026-05-05 22:26 | 33.66755 | -86.57557 | 3055 ft | 107 kts | 233° |
| 2026-05-05 22:26 | 33.66381 | -86.58322 | 2967 ft | 106 kts | 233° |
| 2026-05-05 22:26 | 33.65911 | -86.59348 | 2817 ft | 106 kts | 232° |
| 2026-05-05 22:26 | 33.65536 | -86.60102 | 2772 ft | 103 kts | 232° |
| 2026-05-05 22:27 | 33.65179 | -86.60851 | 2717 ft | 104 kts | 233° |
| 2026-05-05 22:27 | 33.64794 | -86.61568 | 2745 ft | 100 kts | 225° |
| 2026-05-05 22:27 | 33.64503 | -86.62017 | 2729 ft | 102 kts | 226° |
| 2026-05-05 22:27 | 33.64058 | -86.62693 | 2709 ft | 106 kts | 223° |
| 2026-05-05 22:28 | 33.63543 | -86.63376 | 2605 ft | 112 kts | 229° |
| 2026-05-05 22:28 | 33.63075 | -86.64133 | 2460 ft | 116 kts | 229° |
| 2026-05-05 22:28 | 33.62590 | -86.64895 | 2373 ft | 113 kts | 226° |
| 2026-05-05 22:28 | 33.62150 | -86.65639 | 2279 ft | 107 kts | 230° |
| 2026-05-05 22:29 | 33.61718 | -86.66358 | 2115 ft | 107 kts | 229° |
| 2026-05-05 22:29 | 33.61318 | -86.67107 | 2093 ft | 107 kts | 231° |
| 2026-05-05 22:29 | 33.60915 | -86.67868 | 2020 ft | 108 kts | 231° |
| 2026-05-05 22:29 | 33.60489 | -86.68599 | 1832 ft | 106 kts | 231° |
| 2026-05-05 22:30 | 33.60080 | -86.69305 | 1696 ft | 101 kts | 229° |
| 2026-05-05 22:30 | 33.59701 | -86.70001 | 1614 ft | 97 kts | 231° |
| 2026-05-05 22:30 | 33.59300 | -86.70661 | 1509 ft | 99 kts | 227° |
| 2026-05-05 22:30 | 33.58925 | -86.71260 | 1319 ft | 87 kts | 231° |
| 2026-05-05 22:31 | 33.58583 | -86.71854 | 1235 ft | 84 kts | 230° |
| 2026-05-05 22:31 | 33.58230 | -86.72448 | 1071 ft | 92 kts | 229° |
| 2026-05-05 22:31 | 33.57867 | -86.73061 | 942 ft | 88 kts | 232° |
| 2026-05-05 22:31 | 33.57522 | -86.73632 | 816 ft | 83 kts | 232° |
| 2026-05-05 22:32 | 33.57175 | -86.74215 | 672 ft | 88 kts | 233° |
| 2026-05-05 22:32 | 33.56879 | -86.74755 | 635 ft | 64 kts | 231° |
| 2026-05-05 22:32 | 33.56747 | -86.74977 | 631 ft | 1 kts | 238° |
| 2026-05-05 22:32 | 33.56733 | -86.74996 | 628 ft | 19 kts | 226° |
| 2026-05-05 22:33 | 33.56651 | -86.75025 | 624 ft | 9 kts | 141° |